Terminal Aerodrome Forecast
Issued by NWS

Home | Current Version | Previous Version | Text Only | Print | Product List | Glossary On
Versions: 1 2 3 4 5 6 7 8 9 10 11 12 13
000
FTUS43 KDDC 240520
TAFHYS
TAF
KHYS 240520Z 2406/2506 20009KT P6SM BKN250
     FM240900 35006KT P6SM OVC250
     FM242200 05009KT P6SM VCTS BKN060CB=

USA.gov is the U.S. government's official web portal to all federal, state and local government web resources and services.